Flight Track Log - Related Links

Times and Time Zones

All times are in EDT time to prevent confusion due to time zone crossing. See the UAL1152 flight status page for this flight to view local times or setup timezone preferences in your user account.

Time Position Orientation Groundspeed Altitude Reporting Facility
EDT Latitude Longitude Course Direction KTS MPH feet Rate Location/Type
Tue 04:20:28 PM 42.3090 -70.9480 91° East 264 304 3,600  Level FlightAware ADS-B
Tue 04:20:53 PM 42.3150 -70.9050 79° East 292 336 4,700 2,743 Climbing FlightAware ADS-B
Tue 04:21:03 PM 42.3180 -70.8870 77° East 297 342 5,200 3,429 Climbing FlightAware ADS-B
Tue 04:21:28 PM 42.3260 -70.8400 77° East 301 346 6,700 3,733 Climbing FlightAware ADS-B
Tue 04:21:48 PM 42.3330 -70.8030 76° East 302 348 8,000 3,600 Climbing FlightAware ADS-B
Tue 04:22:03 PM 42.3410 -70.7760 68° East 308 354 8,800 3,300 Climbing FlightAware ADS-B
Tue 04:22:08 PM 42.3450 -70.7670 59° Northeast 313 360 9,100 3,200 Climbing FlightAware ADS-B
Tue 04:22:18 PM 42.3550 -70.7540 44° Northeast 315 362 9,600 3,000 Climbing FlightAware ADS-B
Tue 04:22:38 PM 42.3810 -70.7370 26° Northeast 316 364 10,600 2,520 Climbing FlightAware ADS-B
Tue 04:23:08 PM 42.4250 -70.7200 16° North 334 384 11,700 2,100 Climbing FlightAware ADS-B
Tue 04:23:18 PM 42.4410 -70.7180 North 337 388 12,000 2,667 Climbing FlightAware ADS-B
Tue 04:23:53 PM 42.4930 -70.7390 343° North 339 390 13,700 3,257 Climbing FlightAware ADS-B
Tue 04:24:28 PM 42.5380 -70.7780 327° Northwest 321 369 15,800 2,143 Climbing FlightAware ADS-B
Tue 04:25:03 PM 42.5670 -70.8330 306° West 310 357 16,200 343 Climbing FlightAware ADS-B
Tue 04:25:38 PM 42.5960 -70.8930 303° West 319 367 16,200  Level FlightAware ADS-B
Tue 04:26:18 PM 42.6280 -70.9590 303° West 319 367 16,200  Level FlightAware ADS-B
Tue 04:26:48 PM 42.6530 -71.0100 304° West 318 366 16,200  Level FlightAware ADS-B
Tue 04:27:24 PM 42.6810 -71.0680 303° West 318 366 16,200  Level FlightAware ADS-B
Tue 04:28:03 PM 42.7130 -71.1350 303° West 319 367 16,200  Level FlightAware ADS-B
Tue 04:28:39 PM 42.7420 -71.1950 303° West 319 367 16,200  Level FlightAware ADS-B
Tue 04:29:08 PM 42.7650 -71.2430 303° West 312 359 16,200  Level FlightAware ADS-B
Tue 04:29:48 PM 42.7890 -71.3160 294° West 306 352 16,200  Level FlightAware ADS-B
Tue 04:30:23 PM 42.8010 -71.3810 284° West 312 359 16,200  Level FlightAware ADS-B
Tue 04:30:53 PM 42.8120 -71.4390 285° West 314 361 16,200  Level FlightAware ADS-B
Tue 04:31:31 PM 42.8210 -71.4890 284° West 313 360 16,200  Level FlightAware ADS-B
Tue 04:32:08 PM 42.8380 -71.5810 284° West 316 364 16,200  Level FlightAware ADS-B
Tue 04:32:38 PM 42.8480 -71.6350 284° West 330 380 16,200  Level FlightAware ADS-B
Tue 04:33:23 PM 42.8660 -71.7310 284° West 331 381 16,200  Level FlightAware ADS-B
Tue 04:34:05 PM 42.8820 -71.8180 284° West 329 379 16,200  Level FlightAware ADS-B
Tue 04:34:40 PM 42.8950 -71.8870 284° West 332 382 16,200  Level FlightAware ADS-B
Tue 04:35:20 PM 42.9100 -71.9670 284° West 333 383 16,200  Level FlightAware ADS-B
Tue 04:36:05 PM 42.9270 -72.0620 284° West 341 392 16,200  Level FlightAware ADS-B
Tue 04:36:46 PM 42.9420 -72.1460 284° West 342 394 16,200  Level FlightAware ADS-B
Tue 04:37:20 PM 42.9540 -72.2110 284° West 344 396 16,200  Level FlightAware ADS-B
Tue 04:37:50 PM 42.9660 -72.2790 284° West 346 398 16,200  Level FlightAware ADS-B
Tue 04:38:29 PM 42.9780 -72.3500 283° West 346 398 16,200  Level FlightAware ADS-B
Tue 04:39:05 PM 42.9890 -72.4150 283° West 346 398 16,200  Level FlightAware ADS-B
Tue 04:39:36 PM 42.9660 -72.2790 103° East 16,200  Level FlightAware ADS-B
Tue 04:40:26 PM 43.0080 -72.5150 284° West 675 777 16,200 -59 Level FlightAware ADS-B
Tue 04:41:17 PM 43.0442 -72.7014 284° West 339 390 16,100 -54 Descending Boston Center
Tue 04:42:18 PM 43.0644 -72.8294 282° West 339 390 16,100  Level Boston Center
Tue 04:43:16 PM 43.0869 -72.9547 284° West 339 390 16,100  Level Boston Center
Tue 04:44:16 PM 43.1092 -73.0942 282° West 339 390 16,100  Level Boston Center
Tue 04:45:17 PM 43.0856 -73.2133 255° West 325 374 16,100 14 Level Boston Center
Tue 04:51:24 PM 42.7640 -73.7740 255° West 287 330 16,200 15 Climbing FlightAware ADS-B
Tue 04:52:02 PM 42.7380 -73.8200 232° Southwest 287 330 16,200  Level FlightAware ADS-B
Tue 04:52:39 PM 42.7120 -73.8650 232° Southwest 287 330 16,200  Level FlightAware ADS-B
Tue 04:53:15 PM 42.6870 -73.9090 232° Southwest 287 330 16,200  Level FlightAware ADS-B
Tue 04:53:51 PM 42.6620 -73.9520 232° Southwest 287 330 16,200  Level FlightAware ADS-B
Tue 04:54:27 PM 42.6370 -73.9960 232° Southwest 287 330 16,200  Level FlightAware ADS-B
Tue 04:55:03 PM 42.6120 -74.0390 232° Southwest 287 330 16,200  Level FlightAware ADS-B
Tue 04:55:44 PM 42.4110 -73.9540 163° South 337 388 16,200  Level FlightAware ADS-B
Tue 04:56:24 PM 42.3610 -73.9760 198° South 337 388 16,200  Level FlightAware ADS-B
Tue 04:57:00 PM 42.3150 -73.9960 198° South 337 388 16,200  Level FlightAware ADS-B
Tue 04:57:35 PM 42.2450 -74.0270 198° South 338 389 16,200  Level FlightAware ADS-B
Tue 04:58:07 PM 42.1980 -74.0480 198° South 339 390 16,200  Level FlightAware ADS-B
Tue 04:58:41 PM 42.1460 -74.0710 198° South 341 392 16,200  Level FlightAware ADS-B
Tue 04:59:19 PM 42.0920 -74.0950 198° South 337 388 16,200  Level FlightAware ADS-B
Tue 04:59:56 PM 42.0340 -74.1200 198° South 335 386 16,200  Level FlightAware ADS-B
Tue 05:00:27 PM 41.9890 -74.1400 198° South 335 386 16,200  Level FlightAware ADS-B
Tue 05:01:04 PM 41.9340 -74.1640 198° South 336 387 16,200 -164 Level FlightAware ADS-B
Tue 05:01:40 PM 41.8810 -74.1880 199° South 328 377 16,000 -676 Descending FlightAware ADS-B
Tue 05:02:15 PM 41.8320 -74.2090 198° South 315 362 15,400 -1,941 Descending FlightAware ADS-B
Tue 05:02:48 PM 41.7860 -74.2290 198° South 329 379 13,800 -2,400 Descending FlightAware ADS-B
Tue 05:03:25 PM 41.7320 -74.2520 198° South 325 374 12,600 -1,826 Descending FlightAware ADS-B
Tue 05:03:57 PM 41.6870 -74.2720 198° South 319 367 11,700 -1,739 Descending FlightAware ADS-B
Tue 05:04:34 PM 41.6350 -74.2940 198° South 313 360 10,600 -1,250 Descending FlightAware ADS-B
Tue 05:05:09 PM 41.5890 -74.3140 198° South 287 330 10,200 -750 Descending FlightAware ADS-B
Tue 05:05:30 PM 41.5630 -74.3260 199° South 274 315 9,900 -1,105 Descending FlightAware ADS-B
Tue 05:05:47 PM 41.5430 -74.3340 197° South 272 313 9,500 -1,364 Descending FlightAware ADS-B
Tue 05:06:14 PM 41.5110 -74.3480 198° South 271 312 8,900 -1,364 Descending FlightAware ADS-B
Tue 05:06:31 PM 41.4920 -74.3570 200° South 272 313 8,500 -1,463 Descending FlightAware ADS-B
Tue 05:06:55 PM 41.4640 -74.3680 196° South 271 312 7,900 -1,535 Descending FlightAware ADS-B
Tue 05:07:14 PM 41.4400 -74.3790 199° South 270 311 7,400 -1,143 Descending FlightAware ADS-B
Tue 05:07:37 PM 41.4120 -74.3910 198° South 266 306 7,100 -419 Descending FlightAware ADS-B
Tue 05:07:57 PM 41.3890 -74.4010 198° South 275 316 7,100  Level FlightAware ADS-B
Tue 05:08:12 PM 41.3710 -74.4090 198° South 275 316 7,100  Level FlightAware ADS-B
Tue 05:08:33 PM 41.3450 -74.4190 196° South 275 316 7,100  Level FlightAware ADS-B
Tue 05:08:53 PM 41.3200 -74.4300 198° South 275 316 7,100  Level FlightAware ADS-B
Tue 05:09:12 PM 41.2970 -74.4400 198° South 278 320 7,100  Level FlightAware ADS-B
Tue 05:09:36 PM 41.2670 -74.4530 198° South 281 323 7,100  Level FlightAware ADS-B
Tue 05:09:55 PM 41.2420 -74.4640 198° South 279 321 7,100  Level FlightAware ADS-B
Tue 05:10:17 PM 41.2170 -74.4750 198° South 279 321 7,100  Level FlightAware ADS-B
Tue 05:10:37 PM 41.1910 -74.4850 196° South 276 318 7,100  Level FlightAware ADS-B
Tue 05:10:58 PM 41.1650 -74.4970 199° South 275 316 7,100  Level FlightAware ADS-B
Tue 05:11:19 PM 41.1430 -74.5060 197° South 274 315 7,100  Level FlightAware ADS-B
Tue 05:11:40 PM 41.1170 -74.5170 198° South 277 319 7,100  Level FlightAware ADS-B
Tue 05:12:01 PM 41.0890 -74.5290 198° South 278 320 7,100  Level FlightAware ADS-B
Tue 05:12:14 PM 41.0730 -74.5360 198° South 279 321 7,100  Level FlightAware ADS-B
Tue 05:12:36 PM 41.0450 -74.5460 195° South 281 323 7,100  Level FlightAware ADS-B
Tue 05:13:00 PM 41.0150 -74.5550 193° South 280 322 7,100  Level FlightAware ADS-B
Tue 05:13:11 PM 41.0010 -74.5590 192° South 279 321 7,100 -353 Level FlightAware ADS-B
Tue 05:13:34 PM 40.9740 -74.5680 194° South 280 322 6,900 -800 Descending FlightAware ADS-B
Tue 05:13:56 PM 40.9450 -74.5770 193° South 280 322 6,500 -1,000 Descending FlightAware ADS-B
Tue 05:14:16 PM 40.9200 -74.5850 194° South 283 326 6,200 -615 Descending FlightAware ADS-B
Tue 05:14:35 PM 40.8960 -74.5920 192° South 274 315 6,100 -154 Descending FlightAware ADS-B
Tue 05:14:55 PM 40.8710 -74.6000 194° South 273 314 6,100  Level FlightAware ADS-B
Tue 05:15:12 PM 40.8500 -74.6070 194° South 273 314 6,100  Level FlightAware ADS-B
Tue 05:15:30 PM 40.8300 -74.6120 191° South 273 314 6,100  Level FlightAware ADS-B
Tue 05:15:54 PM 40.8000 -74.6050 170° South 278 320 6,100  Level FlightAware ADS-B
Tue 05:16:06 PM 40.7870 -74.6000 164° South 279 321 6,100  Level FlightAware ADS-B
Tue 05:16:33 PM 40.7510 -74.5870 165° South 279 321 6,100 -122 Level FlightAware ADS-B
Tue 05:16:55 PM 40.7250 -74.5740 159° South 280 322 6,000 -571 Descending FlightAware ADS-B
Tue 05:17:15 PM 40.7010 -74.5600 156° South 276 318 5,700 -1,050 Descending FlightAware ADS-B
Tue 05:17:35 PM 40.6770 -74.5450 155° Southeast 274 315 5,300 -1,059 Descending FlightAware ADS-B
Tue 05:17:49 PM 40.6600 -74.5330 152° Southeast 271 312 5,100 -522 Descending FlightAware ADS-B
Tue 05:17:58 PM 40.6520 -74.5240 140° Southeast 272 313 5,100  Level FlightAware ADS-B
Tue 05:18:12 PM 40.6390 -74.5080 137° Southeast 271 312 5,100  Level FlightAware ADS-B
Tue 05:18:35 PM 40.6190 -74.4830 137° Southeast 268 308 5,100  Level FlightAware ADS-B
Tue 05:18:47 PM 40.6080 -74.4690 136° Southeast 255 293 5,100  Level FlightAware ADS-B
Tue 05:19:07 PM 40.5920 -74.4480 135° Southeast 234 269 5,100 -400 Level FlightAware ADS-B
Tue 05:19:32 PM 40.5730 -74.4240 136° Southeast 223 257 4,800 -732 Descending FlightAware ADS-B
Tue 05:19:48 PM 40.5620 -74.4090 134° Southeast 219 252 4,600 -900 Descending FlightAware ADS-B
Tue 05:20:12 PM 40.5440 -74.3850 135° Southeast 222 255 4,200 -750 Descending FlightAware ADS-B
Tue 05:20:28 PM 40.5330 -74.3700 134° Southeast 217 250 4,100 -833 Descending FlightAware ADS-B
Tue 05:20:48 PM 40.5200 -74.3500 131° Southeast 215 247 3,700 -909 Descending FlightAware ADS-B
Tue 05:21:01 PM 40.5180 -74.3350 100° East 205 236 3,600 -667 Descending FlightAware ADS-B
Tue 05:21:15 PM 40.5215 -74.3181 75° East 204 235 3,400 -1,108 Descending FlightAware ADS-B
Tue 05:22:06 PM 40.5510 -74.2700 51° Northeast 199 229 2,400 -1,220 Descending FlightAware ADS-B
Tue 05:22:14 PM 40.5559 -74.2631 47° Northeast 200 230 2,200 -500 Descending FlightAware ADS-B
Tue 05:22:30 PM 40.5655 -74.2480 50° Northeast 199 229 2,200 -250 Level FlightAware ADS-B
Tue 05:22:38 PM 40.5713 -74.2419 39° Northeast 194 223 2,100 -300 Descending FlightAware ADS-B
Tue 05:22:50 PM 40.5802 -74.2358 27° Northeast 192 221 2,100  Level FlightAware ADS-B
Tue 05:23:01 PM 40.5893 -74.2303 25° Northeast 196 226 2,100 -643 Level FlightAware ADS-B
Tue 05:23:18 PM 40.6029 -74.2216 26° Northeast 187 215 1,800 -1,059 Descending FlightAware ADS-B
Tue 05:23:35 PM 40.6157 -74.2136 25° Northeast 179 206 1,500 -882 Descending FlightAware ADS-B
Tue 05:23:52 PM 40.6276 -74.2059 26° Northeast 167 192 1,300 -828 Descending FlightAware ADS-B
Tue 05:24:04 PM 40.6357 -74.2009 25° Northeast 162 186 1,100 -857 Descending FlightAware ADS-B
Tue 05:24:13 PM 40.6418 -74.1971 25° Northeast 161 185 1,000 -750 Descending FlightAware ADS-B
Tue 05:24:28 PM 40.6521 -74.1905 26° Northeast 161 185 800 -968 Descending FlightAware ADS-B
Tue 05:24:44 PM 40.6630 -74.1836 26° Northeast 163 188 500 -923 Descending FlightAware ADS-B
Tue 05:24:54 PM 40.6698 -74.1792 26° Northeast 167 192 400 -600 Descending FlightAware ADS-B
Tue 05:25:30 PM 40.6921 -74.1650 26° Northeast 88 101 -667 Descending FlightAware ADS-B

Login

Don't have an account? Register now (free) for customized features, flight alerts, and more!